Station Historical Data
Daily Summary for December 31, 2017 Units:  English    Metric   Both
« Previous Day
Next Day »
Daily Weekly Monthly Yearly Custom
  High: Low: Average:
Temperature: 11.7 °F -4.1 °F 4.6 °F
Dew Point: 3.6 °F -9.0 °F -1.6 °F
Humidity: 84% 64% 75%
Wind Speed: 9.0mph 0.0mph 2.1mph
Wind Gust: 11.0mph - -
Wind- - WNW
Pressure: 30.48 in 30.28 in -
Precipitation: 0.00 in    
Historical Graphs
 
 
Tabular Data for December 31, 2017
Time Temperature Dew Point Pressure Wind Wind Speed Wind Gust Humidity Rainfall Rate (Hourly)
00:04 7.6 °F 1.3 °F 30.28 in NNW 4.0 mph 9.0 mph 75% 0.00 in
00:09 7.5 °F 1.2 °F 30.28 in NNW 4.0 mph 10.0 mph 75% 0.00 in
00:14 7.3 °F 1.0 °F 30.28 in NW 5.0 mph 9.0 mph 75% 0.00 in
00:19 7.2 °F 0.7 °F 30.28 in NW 7.0 mph 11.0 mph 74% 0.00 in
00:24 7.2 °F 0.7 °F 30.29 in NNW 1.0 mph 9.0 mph 74% 0.00 in
00:29 7.1 °F 0.6 °F 30.29 in NNW 6.0 mph 9.0 mph 74% 0.00 in
00:34 7.0 °F 0.5 °F 30.29 in NW 2.0 mph 10.0 mph 74% 0.00 in
00:39 6.9 °F 0.6 °F 30.29 in NNW 2.0 mph 10.0 mph 75% 0.00 in
00:44 6.8 °F 0.6 °F 30.29 in NNW 4.0 mph 11.0 mph 75% 0.00 in
00:49 6.6 °F 0.4 °F 30.29 in NNW 3.0 mph 11.0 mph 75% 0.00 in
00:54 6.5 °F 0.3 °F 30.29 in NNW 4.0 mph 11.0 mph 75% 0.00 in
00:59 6.4 °F 0.2 °F 30.29 in NNW 3.0 mph 5.0 mph 75% 0.00 in
01:05 6.3 °F 0.1 °F 30.29 in NNW 2.0 mph 7.0 mph 75% 0.00 in
01:10 6.2 °F 0.0 °F 30.30 in NW 5.0 mph 8.0 mph 75% 0.00 in
01:15 6.1 °F -0.1 °F 30.30 in North 2.0 mph 8.0 mph 75% 0.00 in
01:20 6.0 °F -0.2 °F 30.30 in NNW 4.0 mph 9.0 mph 75% 0.00 in
01:25 6.0 °F 0.1 °F 30.30 in NNW 4.0 mph 11.0 mph 76% 0.00 in
01:30 5.9 °F 0.0 °F 30.31 in NNW 4.0 mph 8.0 mph 76% 0.00 in
01:35 5.9 °F 0.0 °F 30.31 in NNW 4.0 mph 9.0 mph 76% 0.00 in
01:40 5.9 °F 0.0 °F 30.31 in NNW 3.0 mph 6.0 mph 76% 0.00 in
01:45 5.8 °F -0.1 °F 30.31 in North 4.0 mph 8.0 mph 76% 0.00 in
01:50 5.8 °F -0.1 °F 30.32 in North 9.0 mph 10.0 mph 76% 0.00 in
01:55 5.8 °F -0.1 °F 30.32 in NNW 4.0 mph 10.0 mph 76% 0.00 in
02:00 5.7 °F -0.2 °F 30.32 in NNW 4.0 mph 10.0 mph 76% 0.00 in
02:05 5.5 °F -0.7 °F 30.32 in NNW 4.0 mph 6.0 mph 75% 0.00 in
02:10 5.4 °F -0.8 °F 30.32 in NW 5.0 mph 7.0 mph 75% 0.00 in
02:15 5.2 °F -1.0 °F 30.33 in NNW 4.0 mph 7.0 mph 75% 0.00 in
02:20 5.0 °F -1.2 °F 30.33 in NNW 4.0 mph 9.0 mph 75% 0.00 in
02:25 4.9 °F -1.3 °F 30.34 in NNW 3.0 mph 9.0 mph 75% 0.00 in
02:30 4.7 °F -1.5 °F 30.34 in NW 3.0 mph 9.0 mph 75% 0.00 in
02:35 4.6 °F -1.6 °F 30.34 in NW 3.0 mph 9.0 mph 75% 0.00 in
02:40 4.6 °F -1.3 °F 30.34 in NW 2.0 mph 6.0 mph 76% 0.00 in
02:45 4.4 °F -1.8 °F 30.34 in North 3.0 mph 7.0 mph 75% 0.00 in
02:50 4.3 °F -1.6 °F 30.34 in NW 1.0 mph 8.0 mph 76% 0.00 in
02:55 4.2 °F -1.7 °F 30.35 in NW 1.0 mph 6.0 mph 76% 0.00 in
03:00 4.1 °F -1.8 °F 30.35 in NW 2.0 mph 6.0 mph 76% 0.00 in
03:05 4.0 °F -1.9 °F 30.35 in NNW 2.0 mph 7.0 mph 76% 0.00 in
03:10 3.8 °F -2.1 °F 30.35 in NNW 3.0 mph 7.0 mph 76% 0.00 in
03:15 3.7 °F -2.2 °F 30.35 in NW 2.0 mph 6.0 mph 76% 0.00 in
03:20 3.6 °F -2.3 °F 30.35 in NNW 3.0 mph 6.0 mph 76% 0.00 in
03:25 3.6 °F -2.0 °F 30.36 in NW 2.0 mph 6.0 mph 77% 0.00 in
03:30 3.5 °F -2.1 °F 30.36 in NNW 2.0 mph 6.0 mph 77% 0.00 in
03:35 3.4 °F -2.2 °F 30.36 in NNW 2.0 mph 6.0 mph 77% 0.00 in
03:40 3.4 °F -2.2 °F 30.36 in NNW 3.0 mph 6.0 mph 77% 0.00 in
03:45 3.3 °F -2.3 °F 30.36 in NNW 1.0 mph 5.0 mph 77% 0.00 in
03:50 3.3 °F -2.3 °F 30.37 in NW 2.0 mph 7.0 mph 77% 0.00 in
03:55 3.3 °F -2.3 °F 30.37 in NW 2.0 mph 6.0 mph 77% 0.00 in
04:00 3.2 °F -2.1 °F 30.37 in WNW 2.0 mph 7.0 mph 78% 0.00 in
04:05 3.1 °F -2.2 °F 30.37 in NNW 4.0 mph 6.0 mph 78% 0.00 in
04:10 3.2 °F -2.1 °F 30.38 in NW 3.0 mph 8.0 mph 78% 0.00 in
04:15 3.1 °F -2.2 °F 30.37 in NW 2.0 mph 8.0 mph 78% 0.00 in
04:20 3.1 °F -2.2 °F 30.37 in NW 2.0 mph 5.0 mph 78% 0.00 in
04:25 2.9 °F -2.4 °F 30.38 in NW 2.0 mph 5.0 mph 78% 0.00 in
04:30 2.8 °F -2.5 °F 30.38 in NW 1.0 mph 6.0 mph 78% 0.00 in
04:35 2.7 °F -2.6 °F 30.38 in Calm   3.0 mph 78% 0.00 in
04:40 2.6 °F -2.7 °F 30.38 in NW 2.0 mph 5.0 mph 78% 0.00 in
04:45 2.5 °F -2.8 °F 30.38 in NW 2.0 mph 6.0 mph 78% 0.00 in
04:50 2.3 °F -3.0 °F 30.38 in NW 2.0 mph 6.0 mph 78% 0.00 in
04:55 2.2 °F -3.1 °F 30.38 in NNW 2.0 mph 5.0 mph 78% 0.00 in
05:00 2.1 °F -3.2 °F 30.39 in Calm   3.0 mph 78% 0.00 in
05:05 1.9 °F -3.4 °F 30.39 in NNW 1.0 mph 3.0 mph 78% 0.00 in
05:10 1.8 °F -3.5 °F 30.39 in Calm     78% 0.00 in
05:15 1.7 °F -3.6 °F 30.39 in Calm   4.0 mph 78% 0.00 in
05:20 1.6 °F -3.7 °F 30.39 in NNW 1.0 mph 4.0 mph 78% 0.00 in
05:25 1.3 °F -4.0 °F 30.39 in Calm   3.0 mph 78% 0.00 in
05:30 1.2 °F -4.1 °F 30.39 in Calm   2.0 mph 78% 0.00 in
05:35 1.0 °F -4.3 °F 30.39 in Calm   3.0 mph 78% 0.00 in
05:40 0.8 °F -4.5 °F 30.39 in Calm   3.0 mph 78% 0.00 in
05:45 0.6 °F -4.6 °F 30.39 in Calm   3.0 mph 78% 0.00 in
05:50 0.4 °F -4.8 °F 30.39 in Calm   2.0 mph 78% 0.00 in
05:55 0.3 °F -4.9 °F 30.39 in Calm   1.0 mph 78% 0.00 in
06:00 0.2 °F -5.0 °F 30.39 in Calm     78% 0.00 in
06:05 0.2 °F -5.0 °F 30.39 in Calm     78% 0.00 in
06:10 0.1 °F -5.1 °F 30.39 in Calm     78% 0.00 in
06:15 0.0 °F -5.2 °F 30.39 in Calm     78% 0.00 in
06:20 -0.1 °F -5.1 °F 30.39 in Calm     79% 0.00 in
06:25 -0.1 °F -5.1 °F 30.39 in Calm     79% 0.00 in
06:30 -0.2 °F -5.2 °F 30.39 in Calm     79% 0.00 in
06:35 -0.3 °F -5.3 °F 30.39 in Calm     79% 0.00 in
06:40 -0.3 °F -5.3 °F 30.39 in Calm     79% 0.00 in
06:45 -0.5 °F -5.5 °F 30.39 in Calm     79% 0.00 in
06:50 -0.7 °F -5.7 °F 30.40 in Calm     79% 0.00 in
06:55 -0.9 °F -5.8 °F 30.40 in Calm     79% 0.00 in
07:00 -1.0 °F -5.9 °F 30.40 in Calm     79% 0.00 in
07:05 -1.2 °F -6.1 °F 30.40 in Calm     79% 0.00 in
07:10 -1.4 °F -6.6 °F 30.40 in Calm     78% 0.00 in
07:15 -1.6 °F -6.8 °F 30.40 in Calm     78% 0.00 in
07:20 -1.9 °F -7.1 °F 30.40 in Calm     78% 0.00 in
07:25 -2.1 °F -7.3 °F 30.40 in Calm     78% 0.00 in
07:30 -2.3 °F -7.5 °F 30.40 in Calm     78% 0.00 in
07:35 -2.6 °F -7.8 °F 30.40 in Calm     78% 0.00 in
07:40 -2.8 °F -8.0 °F 30.41 in Calm     78% 0.00 in
07:45 -3.0 °F -8.2 °F 30.41 in Calm     78% 0.00 in
07:50 -3.2 °F -8.4 °F 30.41 in Calm     78% 0.00 in
07:54 -3.3 °F -8.4 °F 30.41 in Calm     78% 0.00 in
08:00 -3.6 °F -8.7 °F 30.41 in Calm     78% 0.00 in
08:05 -3.7 °F -8.8 °F 30.42 in Calm     78% 0.00 in
08:10 -3.9 °F -9.0 °F 30.42 in Calm     78% 0.00 in
08:15 -4.0 °F -8.9 °F 30.43 in Calm     79% 0.00 in
08:20 -4.1 °F -9.0 °F 30.43 in Calm     79% 0.00 in
08:25 -4.1 °F -9.0 °F 30.43 in Calm     79% 0.00 in
08:35 -3.8 °F -8.4 °F 30.45 in Calm     80% 0.00 in
08:40 -3.5 °F -8.1 °F 30.45 in Calm     80% 0.00 in
08:45 -3.0 °F -7.4 °F 30.45 in Calm     81% 0.00 in
08:50 -2.3 °F -6.7 °F 30.45 in Calm     81% 0.00 in
08:55 -1.7 °F -6.1 °F 30.45 in Calm     81% 0.00 in
08:59 -1.2 °F -5.4 °F 30.45 in Calm     82% 0.00 in
09:05 -0.6 °F -4.8 °F 30.45 in Calm     82% 0.00 in
09:10 0.1 °F -3.8 °F 30.45 in Calm     83% 0.00 in
09:15 0.7 °F -3.3 °F 30.45 in Calm     83% 0.00 in
09:20 1.4 °F -2.6 °F 30.45 in Calm     83% 0.00 in
09:25 1.8 °F -2.2 °F 30.46 in Calm     83% 0.00 in
09:34 3.0 °F -0.7 °F 30.46 in Calm     84% 0.00 in
09:40 3.5 °F -0.2 °F 30.46 in Calm     84% 0.00 in
09:50 4.6 °F 0.8 °F 30.46 in Calm     84% 0.00 in
09:55 5.2 °F 1.4 °F 30.46 in NW 1.0 mph 3.0 mph 84% 0.00 in
10:00 5.7 °F 1.9 °F 30.46 in NW 1.0 mph 3.0 mph 84% 0.00 in
10:05 6.0 °F 2.2 °F 30.46 in NW 2.0 mph 4.0 mph 84% 0.00 in
10:15 6.6 °F 2.5 °F 30.46 in NW 1.0 mph 4.0 mph 83% 0.00 in
10:20 6.9 °F 2.8 °F 30.47 in NNW 1.0 mph 5.0 mph 83% 0.00 in
10:25 7.1 °F 3.0 °F 30.46 in NNW 1.0 mph 5.0 mph 83% 0.00 in
10:29 7.1 °F 2.8 °F 30.46 in North 4.0 mph 6.0 mph 82% 0.00 in
10:30 7.1 °F 2.8 °F 30.46 in North 3.0 mph 6.0 mph 82% 0.00 in
10:35 7.1 °F 2.8 °F 30.47 in Calm   5.0 mph 82% 0.00 in
10:40 7.2 °F 2.9 °F 30.46 in North 2.0 mph 4.0 mph 82% 0.00 in
10:45 7.2 °F 2.6 °F 30.46 in North 2.0 mph 4.0 mph 81% 0.00 in
10:50 7.1 °F 2.2 °F 30.46 in North 2.0 mph 4.0 mph 80% 0.00 in
10:55 7.2 °F 2.3 °F 30.46 in North 3.0 mph 7.0 mph 80% 0.00 in
11:00 7.1 °F 2.2 °F 30.46 in North 3.0 mph 7.0 mph 80% 0.00 in
11:05 7.1 °F 2.0 °F 30.45 in North 4.0 mph 8.0 mph 79% 0.00 in
11:10 7.3 °F 2.2 °F 30.45 in NNW 3.0 mph 7.0 mph 79% 0.00 in
11:15 7.7 °F 2.5 °F 30.45 in North 4.0 mph 6.0 mph 79% 0.00 in
11:19 7.9 °F 2.5 °F 30.45 in North 3.0 mph 8.0 mph 78% 0.00 in
11:24 8.0 °F 2.3 °F 30.45 in North 3.0 mph 8.0 mph 77% 0.00 in
11:29 7.9 °F 2.2 °F 30.45 in North 4.0 mph 8.0 mph 77% 0.00 in
11:34 8.2 °F 2.2 °F 30.45 in North 2.0 mph 8.0 mph 76% 0.00 in
11:39 8.4 °F 2.4 °F 30.45 in NNE 3.0 mph 8.0 mph 76% 0.00 in
11:44 9.1 °F 2.8 °F 30.45 in NNW 1.0 mph 6.0 mph 75% 0.00 in
11:49 9.5 °F 2.3 °F 30.45 in North 3.0 mph 7.0 mph 72% 0.00 in
11:55 10.1 °F 2.6 °F 30.45 in NW 3.0 mph 7.0 mph 71% 0.00 in
12:00 10.1 °F 1.9 °F 30.45 in North 2.0 mph 9.0 mph 69% 0.00 in
12:04 10.1 °F 1.9 °F 30.45 in NNE 5.0 mph 10.0 mph 69% 0.00 in
12:10 9.9 °F 1.4 °F 30.45 in North 4.0 mph 10.0 mph 68% 0.00 in
12:15 9.9 °F 1.8 °F 30.45 in North 4.0 mph 6.0 mph 69% 0.00 in
12:20 10.1 °F 2.3 °F 30.45 in NNE 3.0 mph 8.0 mph 70% 0.00 in
12:24 10.0 °F 1.9 °F 30.45 in North 4.0 mph 8.0 mph 69% 0.00 in
12:29 10.0 °F 2.2 °F 30.44 in North 3.0 mph 8.0 mph 70% 0.00 in
12:35 9.8 °F 2.0 °F 30.44 in North 3.0 mph 8.0 mph 70% 0.00 in
12:40 9.9 °F 2.1 °F 30.44 in NW 4.0 mph 5.0 mph 70% 0.00 in
12:45 10.1 °F 2.3 °F 30.44 in NNW 2.0 mph 7.0 mph 70% 0.00 in
12:50 10.4 °F 2.2 °F 30.44 in West 5.0 mph 7.0 mph 69% 0.00 in
12:55 9.8 °F 1.3 °F 30.44 in NNW 3.0 mph 7.0 mph 68% 0.00 in
12:59 10.0 °F 1.5 °F 30.44 in North 1.0 mph 3.0 mph 68% 0.00 in
13:04 10.1 °F 1.6 °F 30.44 in WNW 3.0 mph 5.0 mph 68% 0.00 in
13:09 10.2 °F 1.4 °F 30.43 in WNW 2.0 mph 4.0 mph 67% 0.00 in
13:15 10.7 °F 1.9 °F 30.44 in North 2.0 mph 8.0 mph 67% 0.00 in
13:20 10.5 °F 1.7 °F 30.44 in NNE 3.0 mph 5.0 mph 67% 0.00 in
13:24 10.2 °F 1.4 °F 30.44 in North 3.0 mph 7.0 mph 67% 0.00 in
13:30 10.6 °F 1.8 °F 30.44 in North 2.0 mph 7.0 mph 67% 0.00 in
13:34 10.9 °F 2.1 °F 30.44 in NNE 2.0 mph 5.0 mph 67% 0.00 in
13:39 10.8 °F 2.0 °F 30.44 in NNE 2.0 mph 5.0 mph 67% 0.00 in
13:45 11.1 °F 1.9 °F 30.44 in North 2.0 mph 7.0 mph 66% 0.00 in
13:50 11.2 °F 1.7 °F 30.44 in NNW 5.0 mph 6.0 mph 65% 0.00 in
13:55 10.5 °F 0.7 °F 30.43 in NW 2.0 mph 7.0 mph 64% 0.00 in
13:59 10.1 °F 0.7 °F 30.43 in NNW 2.0 mph 7.0 mph 65% 0.00 in
14:04 10.2 °F 1.1 °F 30.43 in West 2.0 mph 6.0 mph 66% 0.00 in
14:09 10.3 °F 1.2 °F 30.43 in NNW 1.0 mph 4.0 mph 66% 0.00 in
14:15 10.2 °F 1.4 °F 30.44 in Calm   4.0 mph 67% 0.00 in
14:19 10.3 °F 1.5 °F 30.43 in WNW 3.0 mph 6.0 mph 67% 0.00 in
14:25 10.4 °F 1.9 °F 30.44 in North 1.0 mph 4.0 mph 68% 0.00 in
14:29 10.7 °F 2.2 °F 30.44 in NW 3.0 mph 5.0 mph 68% 0.00 in
14:35 11.1 °F 2.6 °F 30.44 in WNW 3.0 mph 7.0 mph 68% 0.00 in
14:40 11.3 °F 2.5 °F 30.44 in WNW 3.0 mph 7.0 mph 67% 0.00 in
14:44 11.5 °F 2.7 °F 30.43 in North 5.0 mph 5.0 mph 67% 0.00 in
14:50 11.4 °F 2.6 °F 30.44 in North 3.0 mph 5.0 mph 67% 0.00 in
14:55 11.0 °F 2.2 °F 30.44 in North 2.0 mph 6.0 mph 67% 0.00 in
14:59 11.1 °F 2.9 °F 30.44 in North 3.0 mph 6.0 mph 69% 0.00 in
15:04 11.4 °F 2.9 °F 30.44 in North 3.0 mph 6.0 mph 68% 0.00 in
15:09 11.7 °F 3.5 °F 30.44 in NNW 3.0 mph 6.0 mph 69% 0.00 in
15:14 11.5 °F 3.3 °F 30.44 in NNW 2.0 mph 5.0 mph 69% 0.00 in
15:19 11.4 °F 3.2 °F 30.44 in NNE 1.0 mph 7.0 mph 69% 0.00 in
15:24 11.5 °F 3.6 °F 30.44 in North 5.0 mph 6.0 mph 70% 0.00 in
15:29 11.5 °F 3.0 °F 30.44 in NW 3.0 mph 8.0 mph 68% 0.00 in
15:34 11.0 °F 1.9 °F 30.44 in WNW 4.0 mph 8.0 mph 66% 0.00 in
15:39 10.7 °F 1.6 °F 30.44 in WNW 5.0 mph 11.0 mph 66% 0.00 in
15:44 10.5 °F 1.4 °F 30.45 in WNW 7.0 mph 9.0 mph 66% 0.00 in
15:49 10.2 °F 1.1 °F 30.45 in NW 3.0 mph 9.0 mph 66% 0.00 in
15:54 9.9 °F 0.8 °F 30.44 in NW 5.0 mph 7.0 mph 66% 0.00 in
15:59 9.5 °F 0.4 °F 30.44 in NNW 2.0 mph 8.0 mph 66% 0.00 in
16:04 9.1 °F 0.0 °F 30.45 in NW 5.0 mph 8.0 mph 66% 0.00 in
16:09 8.8 °F -0.3 °F 30.45 in NW 4.0 mph 8.0 mph 66% 0.00 in
16:14 8.6 °F -0.4 °F 30.45 in NW 3.0 mph 7.0 mph 66% 0.00 in
16:19 8.4 °F -0.6 °F 30.45 in NW 2.0 mph 7.0 mph 66% 0.00 in
16:24 8.2 °F -0.8 °F 30.45 in WNW 2.0 mph 5.0 mph 66% 0.00 in
16:29 8.0 °F -0.7 °F 30.45 in WNW 1.0 mph 4.0 mph 67% 0.00 in
16:35 7.8 °F -0.9 °F 30.45 in WNW 2.0 mph 5.0 mph 67% 0.00 in
16:39 7.5 °F -1.2 °F 30.45 in NW 3.0 mph 4.0 mph 67% 0.00 in
16:44 7.4 °F -1.0 °F 30.45 in NW 2.0 mph 4.0 mph 68% 0.00 in
16:49 7.3 °F -1.1 °F 30.45 in Calm   3.0 mph 68% 0.00 in
16:55 7.2 °F -0.8 °F 30.46 in West 3.0 mph 5.0 mph 69% 0.00 in
16:59 7.2 °F -0.5 °F 30.46 in West 2.0 mph 4.0 mph 70% 0.00 in
17:05 7.2 °F -0.2 °F 30.46 in West 2.0 mph 4.0 mph 71% 0.00 in
17:10 7.2 °F -0.2 °F 30.46 in West 2.0 mph 4.0 mph 71% 0.00 in
17:14 7.2 °F 0.1 °F 30.46 in West 1.0 mph 3.0 mph 72% 0.00 in
17:19 7.0 °F -0.1 °F 30.46 in West 1.0 mph 3.0 mph 72% 0.00 in
17:24 6.9 °F -0.2 °F 30.46 in West 1.0 mph 3.0 mph 72% 0.00 in
17:29 6.7 °F -0.4 °F 30.46 in Calm     72% 0.00 in
17:34 6.4 °F -0.7 °F 30.46 in Calm     72% 0.00 in
17:35 6.4 °F -0.7 °F 30.46 in Calm     72% 0.00 in
17:45 5.9 °F -1.2 °F 30.46 in Calm   2.0 mph 72% 0.00 in
17:49 5.6 °F -1.5 °F 30.46 in West 2.0 mph 2.0 mph 72% 0.00 in
17:54 5.4 °F -1.7 °F 30.47 in West 1.0 mph 3.0 mph 72% 0.00 in
17:59 5.0 °F -2.1 °F 30.47 in West 1.0 mph 2.0 mph 72% 0.00 in
18:04 4.8 °F -2.3 °F 30.47 in West 1.0 mph 3.0 mph 72% 0.00 in
18:09 4.5 °F -2.5 °F 30.47 in West 1.0 mph 3.0 mph 72% 0.00 in
18:14 4.3 °F -2.4 °F 30.47 in West 1.0 mph 2.0 mph 73% 0.00 in
18:19 4.0 °F -2.7 °F 30.47 in West 1.0 mph 3.0 mph 73% 0.00 in
18:25 3.9 °F -2.8 °F 30.47 in Calm     73% 0.00 in
18:34 3.6 °F -2.8 °F 30.47 in Calm     74% 0.00 in
18:40 3.6 °F -2.8 °F 30.47 in Calm   5.0 mph 74% 0.00 in
18:44 3.5 °F -2.9 °F 30.47 in Calm   5.0 mph 74% 0.00 in
18:50 3.5 °F -2.7 °F 30.47 in WSW 1.0 mph 4.0 mph 75% 0.00 in
18:54 3.6 °F -2.6 °F 30.47 in WSW 2.0 mph 4.0 mph 75% 0.00 in
18:59 3.6 °F -2.3 °F 30.47 in WSW 2.0 mph 4.0 mph 76% 0.00 in
19:04 3.6 °F -2.3 °F 30.47 in Calm   3.0 mph 76% 0.00 in
19:09 3.5 °F -2.4 °F 30.48 in WSW 1.0 mph 3.0 mph 76% 0.00 in
19:14 3.4 °F -2.5 °F 30.48 in WSW 1.0 mph 3.0 mph 76% 0.00 in
19:19 3.2 °F -2.7 °F 30.48 in WSW 1.0 mph 3.0 mph 76% 0.00 in
19:20 3.2 °F -2.7 °F 30.48 in WSW 1.0 mph 2.0 mph 76% 0.00 in
19:29 3.0 °F -2.9 °F 30.48 in Calm   2.0 mph 76% 0.00 in
19:30 3.0 °F -2.9 °F 30.48 in WSW 1.0 mph 3.0 mph 76% 0.00 in
19:39 2.9 °F -2.7 °F 30.47 in WSW 1.0 mph 3.0 mph 77% 0.00 in
19:44 2.9 °F -3.0 °F 30.47 in Calm   3.0 mph 76% 0.00 in
19:45 2.9 °F -3.0 °F 30.47 in Calm     76% 0.00 in
19:54 2.7 °F -3.1 °F 30.47 in Calm     76% 0.00 in
20:00 2.6 °F -3.2 °F 30.47 in Calm     76% 0.00 in
20:04 2.4 °F -3.4 °F 30.47 in Calm     76% 0.00 in
20:09 2.2 °F -3.6 °F 30.47 in Calm     76% 0.00 in
20:14 1.9 °F -3.9 °F 30.47 in Calm     76% 0.00 in
20:19 1.6 °F -4.2 °F 30.47 in WSW 1.0 mph 4.0 mph 76% 0.00 in
20:24 1.6 °F -3.9 °F 30.47 in Calm   4.0 mph 77% 0.00 in
20:25 1.6 °F -3.9 °F 30.47 in WSW 1.0 mph 4.0 mph 77% 0.00 in
20:29 1.7 °F -3.8 °F 30.47 in Calm   4.0 mph 77% 0.00 in
20:34 1.8 °F -3.7 °F 30.47 in West 1.0 mph 4.0 mph 77% 0.00 in
20:39 1.9 °F -3.4 °F 30.46 in WSW 2.0 mph 5.0 mph 78% 0.00 in
20:44 2.0 °F -3.3 °F 30.47 in WSW 2.0 mph 5.0 mph 78% 0.00 in
20:49 2.2 °F -3.1 °F 30.46 in West 3.0 mph 4.0 mph 78% 0.00 in
20:54 2.2 °F -3.1 °F 30.46 in West 2.0 mph 5.0 mph 78% 0.00 in
20:59 2.3 °F -3.0 °F 30.46 in West 3.0 mph 5.0 mph 78% 0.00 in
21:05 2.4 °F -2.9 °F 30.46 in West 5.0 mph 6.0 mph 78% 0.00 in
21:10 2.6 °F -3.0 °F 30.46 in West 4.0 mph 6.0 mph 77% 0.00 in
21:14 2.7 °F -2.9 °F 30.46 in West 4.0 mph 7.0 mph 77% 0.00 in
21:19 2.8 °F -2.8 °F 30.46 in West 5.0 mph 7.0 mph 77% 0.00 in
21:24 2.9 °F -2.7 °F 30.47 in West 3.0 mph 8.0 mph 77% 0.00 in
21:25 2.9 °F -2.7 °F 30.47 in West 6.0 mph 8.0 mph 77% 0.00 in
21:34 3.1 °F -2.5 °F 30.47 in West 2.0 mph 7.0 mph 77% 0.00 in
21:39 3.1 °F -2.5 °F 30.47 in West 4.0 mph 7.0 mph 77% 0.00 in
21:44 3.1 °F -2.8 °F 30.47 in West 3.0 mph 7.0 mph 76% 0.00 in
21:49 3.1 °F -2.8 °F 30.47 in West 3.0 mph 7.0 mph 76% 0.00 in
21:54 3.0 °F -2.9 °F 30.47 in West 3.0 mph 6.0 mph 76% 0.00 in
21:59 3.0 °F -2.9 °F 30.47 in West 5.0 mph 7.0 mph 76% 0.00 in
22:00 3.0 °F -2.9 °F 30.47 in West 3.0 mph 7.0 mph 76% 0.00 in
22:04 3.0 °F -2.9 °F 30.47 in West 3.0 mph 7.0 mph 76% 0.00 in
22:09 2.9 °F -3.0 °F 30.47 in West 3.0 mph 7.0 mph 76% 0.00 in
22:15 2.9 °F -3.0 °F 30.47 in West 3.0 mph 7.0 mph 76% 0.00 in
22:19 2.8 °F -3.1 °F 30.47 in West 3.0 mph 6.0 mph 76% 0.00 in
22:24 2.7 °F -3.1 °F 30.47 in West 4.0 mph 8.0 mph 76% 0.00 in
22:29 2.6 °F -3.2 °F 30.47 in WNW 5.0 mph 6.0 mph 76% 0.00 in
22:34 2.5 °F -3.3 °F 30.47 in West 6.0 mph 7.0 mph 76% 0.00 in
22:39 2.4 °F -3.4 °F 30.47 in West 3.0 mph 7.0 mph 76% 0.00 in
22:40 2.4 °F -3.4 °F 30.47 in West 3.0 mph 7.0 mph 76% 0.00 in
22:44 2.2 °F -3.6 °F 30.47 in West 4.0 mph 6.0 mph 76% 0.00 in
22:49 2.2 °F -3.6 °F 30.48 in West 3.0 mph 7.0 mph 76% 0.00 in
22:54 2.1 °F -3.7 °F 30.48 in West 3.0 mph 7.0 mph 76% 0.00 in
22:59 2.0 °F -3.8 °F 30.48 in West 3.0 mph 7.0 mph 76% 0.00 in
23:00 2.0 °F -3.8 °F 30.48 in WNW 4.0 mph 5.0 mph 76% 0.00 in
23:04 2.0 °F -3.8 °F 30.48 in West 3.0 mph 5.0 mph 76% 0.00 in
23:09 1.9 °F -3.9 °F 30.48 in West 3.0 mph 5.0 mph 76% 0.00 in
23:14 1.8 °F -4.0 °F 30.48 in West 2.0 mph 6.0 mph 76% 0.00 in
23:15 1.8 °F -4.0 °F 30.48 in West 3.0 mph 6.0 mph 76% 0.00 in
23:24 1.8 °F -3.7 °F 30.48 in West 3.0 mph 7.0 mph 77% 0.00 in
23:29 1.8 °F -3.7 °F 30.48 in West 4.0 mph 7.0 mph 77% 0.00 in
23:34 1.8 °F -3.7 °F 30.48 in West 4.0 mph 6.0 mph 77% 0.00 in
23:39 1.8 °F -3.7 °F 30.48 in West 3.0 mph 5.0 mph 77% 0.00 in
23:44 1.7 °F -3.8 °F 30.48 in West 2.0 mph 5.0 mph 77% 0.00 in
23:49 1.8 °F -3.7 °F 30.48 in West 3.0 mph 6.0 mph 77% 0.00 in
23:54 1.8 °F -3.7 °F 30.48 in West 5.0 mph 6.0 mph 77% 0.00 in
23:59 1.8 °F -3.5 °F 30.48 in West 4.0 mph 7.0 mph 78% 0.00 in
Buffalo, New York, USA
Compliments of Weather Underground - 2.5 mb